sensor_id;sensor_type;location;lat;lon;timestamp;temperature;humidity
480;DHT22;226;48.606;9.096;2024-01-06T00:02:17;5.70;63.00
480;DHT22;226;48.606;9.096;2024-01-06T00:04:45;5.90;64.70
480;DHT22;226;48.606;9.096;2024-01-06T00:07:13;5.70;64.70
480;DHT22;226;48.606;9.096;2024-01-06T00:09:41;5.80;64.00
480;DHT22;226;48.606;9.096;2024-01-06T00:12:11;5.70;63.70
480;DHT22;226;48.606;9.096;2024-01-06T00:14:39;6.00;63.30
480;DHT22;226;48.606;9.096;2024-01-06T00:17:10;5.70;63.60
480;DHT22;226;48.606;9.096;2024-01-06T00:19:38;5.70;62.30
480;DHT22;226;48.606;9.096;2024-01-06T00:22:07;5.60;63.20
480;DHT22;226;48.606;9.096;2024-01-06T00:24:35;5.50;61.60
480;DHT22;226;48.606;9.096;2024-01-06T00:27:04;5.40;62.20
480;DHT22;226;48.606;9.096;2024-01-06T00:29:33;5.30;63.80
480;DHT22;226;48.606;9.096;2024-01-06T00:32:01;5.30;65.90
480;DHT22;226;48.606;9.096;2024-01-06T00:34:29;5.40;67.00
480;DHT22;226;48.606;9.096;2024-01-06T00:36:58;5.50;65.20
480;DHT22;226;48.606;9.096;2024-01-06T00:39:26;5.50;65.20
480;DHT22;226;48.606;9.096;2024-01-06T00:41:54;5.50;66.90
480;DHT22;226;48.606;9.096;2024-01-06T00:44:21;5.60;67.50
480;DHT22;226;48.606;9.096;2024-01-06T00:46:50;5.60;67.70
480;DHT22;226;48.606;9.096;2024-01-06T00:49:18;5.60;66.70
480;DHT22;226;48.606;9.096;2024-01-06T00:51:46;5.80;66.10
480;DHT22;226;48.606;9.096;2024-01-06T00:54:15;5.60;64.70
480;DHT22;226;48.606;9.096;2024-01-06T01:16:38;5.30;97.50
480;DHT22;226;48.606;9.096;2024-01-06T01:19:07;5.20;97.10
480;DHT22;226;48.606;9.096;2024-01-06T01:21:36;5.00;97.20
480;DHT22;226;48.606;9.096;2024-01-06T01:24:05;5.10;97.90
480;DHT22;226;48.606;9.096;2024-01-06T01:26:33;5.10;98.00
480;DHT22;226;48.606;9.096;2024-01-06T01:31:29;5.20;98.10
480;DHT22;226;48.606;9.096;2024-01-06T01:33:58;5.10;97.70
480;DHT22;226;48.606;9.096;2024-01-06T01:36:26;5.20;97.30
480;DHT22;226;48.606;9.096;2024-01-06T01:38:55;5.20;97.00
480;DHT22;226;48.606;9.096;2024-01-06T01:41:24;5.20;97.00
480;DHT22;226;48.606;9.096;2024-01-06T01:43:52;5.30;96.80
480;DHT22;226;48.606;9.096;2024-01-06T01:46:25;5.30;96.40
480;DHT22;226;48.606;9.096;2024-01-06T01:48:54;5.20;96.30
480;DHT22;226;48.606;9.096;2024-01-06T01:51:26;5.30;96.60
480;DHT22;226;48.606;9.096;2024-01-06T01:53:56;5.30;96.80
480;DHT22;226;48.606;9.096;2024-01-06T01:56:25;5.30;95.30
480;DHT22;226;48.606;9.096;2024-01-06T01:58:53;5.20;95.00
480;DHT22;226;48.606;9.096;2024-01-06T02:01:22;5.00;95.60
480;DHT22;226;48.606;9.096;2024-01-06T02:03:50;5.10;95.70
480;DHT22;226;48.606;9.096;2024-01-06T02:06:18;5.10;95.50
480;DHT22;226;48.606;9.096;2024-01-06T02:08:46;5.00;95.50
480;DHT22;226;48.606;9.096;2024-01-06T02:11:16;5.00;95.80
480;DHT22;226;48.606;9.096;2024-01-06T02:13:44;4.90;96.10
480;DHT22;226;48.606;9.096;2024-01-06T02:16:12;5.10;96.40
480;DHT22;226;48.606;9.096;2024-01-06T02:18:40;5.00;96.30
480;DHT22;226;48.606;9.096;2024-01-06T02:21:09;4.80;96.30
480;DHT22;226;48.606;9.096;2024-01-06T02:23:39;4.80;96.50
480;DHT22;226;48.606;9.096;2024-01-06T02:26:07;4.80;96.40
480;DHT22;226;48.606;9.096;2024-01-06T02:28:35;4.80;96.30
480;DHT22;226;48.606;9.096;2024-01-06T02:31:04;4.70;96.20
480;DHT22;226;48.606;9.096;2024-01-06T02:33:32;4.70;96.80
480;DHT22;226;48.606;9.096;2024-01-06T02:36:00;4.80;96.50
480;DHT22;226;48.606;9.096;2024-01-06T02:38:28;4.80;97.20
480;DHT22;226;48.606;9.096;2024-01-06T02:40:58;4.90;97.00
480;DHT22;226;48.606;9.096;2024-01-06T02:43:26;4.90;96.90
480;DHT22;226;48.606;9.096;2024-01-06T02:45:54;4.90;96.90
480;DHT22;226;48.606;9.096;2024-01-06T02:48:22;4.90;96.70
480;DHT22;226;48.606;9.096;2024-01-06T02:50:50;5.00;96.70
480;DHT22;226;48.606;9.096;2024-01-06T02:53:18;4.90;95.90
480;DHT22;226;48.606;9.096;2024-01-06T02:55:46;5.00;95.00
480;DHT22;226;48.606;9.096;2024-01-06T02:58:16;4.90;94.80
480;DHT22;226;48.606;9.096;2024-01-06T03:00:44;4.90;95.50
480;DHT22;226;48.606;9.096;2024-01-06T03:03:12;5.20;96.70
480;DHT22;226;48.606;9.096;2024-01-06T03:05:40;4.70;96.00
480;DHT22;226;48.606;9.096;2024-01-06T03:08:08;5.00;96.90
480;DHT22;226;48.606;9.096;2024-01-06T03:10:37;4.70;96.60
480;DHT22;226;48.606;9.096;2024-01-06T03:13:05;4.70;96.90
480;DHT22;226;48.606;9.096;2024-01-06T03:15:34;4.70;96.90
480;DHT22;226;48.606;9.096;2024-01-06T03:18:02;4.70;96.60
480;DHT22;226;48.606;9.096;2024-01-06T03:20:31;4.80;97.30
480;DHT22;226;48.606;9.096;2024-01-06T03:22:59;4.80;96.70
480;DHT22;226;48.606;9.096;2024-01-06T03:25:27;4.90;96.40
480;DHT22;226;48.606;9.096;2024-01-06T03:27:55;4.90;96.20
480;DHT22;226;48.606;9.096;2024-01-06T03:30:23;4.90;96.00
480;DHT22;226;48.606;9.096;2024-01-06T03:32:53;4.90;96.00
480;DHT22;226;48.606;9.096;2024-01-06T03:35:21;4.80;95.80
480;DHT22;226;48.606;9.096;2024-01-06T03:37:49;4.80;96.20
480;DHT22;226;48.606;9.096;2024-01-06T03:40:17;4.80;96.20
480;DHT22;226;48.606;9.096;2024-01-06T03:42:45;4.90;95.70
480;DHT22;226;48.606;9.096;2024-01-06T03:45:13;4.90;95.10
480;DHT22;226;48.606;9.096;2024-01-06T03:47:41;4.90;95.10
480;DHT22;226;48.606;9.096;2024-01-06T03:50:12;4.80;94.90
480;DHT22;226;48.606;9.096;2024-01-06T03:52:40;4.80;95.20
480;DHT22;226;48.606;9.096;2024-01-06T03:55:09;4.80;95.70
480;DHT22;226;48.606;9.096;2024-01-06T03:57:37;4.90;95.50
480;DHT22;226;48.606;9.096;2024-01-06T04:00:06;4.90;94.60
480;DHT22;226;48.606;9.096;2024-01-06T04:02:35;4.90;94.70
480;DHT22;226;48.606;9.096;2024-01-06T04:05:03;4.80;95.00
480;DHT22;226;48.606;9.096;2024-01-06T04:07:34;4.90;95.60
480;DHT22;226;48.606;9.096;2024-01-06T04:10:02;4.90;94.90
480;DHT22;226;48.606;9.096;2024-01-06T04:12:30;4.90;94.50
480;DHT22;226;48.606;9.096;2024-01-06T04:14:58;4.90;95.00
480;DHT22;226;48.606;9.096;2024-01-06T04:17:26;4.90;95.80
480;DHT22;226;48.606;9.096;2024-01-06T04:19:54;4.80;95.20
480;DHT22;226;48.606;9.096;2024-01-06T04:22:22;4.80;95.40
480;DHT22;226;48.606;9.096;2024-01-06T04:24:52;4.90;95.10
480;DHT22;226;48.606;9.096;2024-01-06T04:27:20;4.90;93.80
480;DHT22;226;48.606;9.096;2024-01-06T04:29:48;4.80;93.50
480;DHT22;226;48.606;9.096;2024-01-06T04:32:20;4.80;94.50
480;DHT22;226;48.606;9.096;2024-01-06T04:34:48;4.80;94.40
480;DHT22;226;48.606;9.096;2024-01-06T04:37:16;5.00;95.10
480;DHT22;226;48.606;9.096;2024-01-06T04:39:44;4.70;94.20
480;DHT22;226;48.606;9.096;2024-01-06T04:42:13;4.80;94.90
480;DHT22;226;48.606;9.096;2024-01-06T04:44:44;4.80;94.70
480;DHT22;226;48.606;9.096;2024-01-06T04:47:12;4.80;94.70
480;DHT22;226;48.606;9.096;2024-01-06T04:49:40;4.80;94.20
480;DHT22;226;48.606;9.096;2024-01-06T04:52:08;4.80;94.20
480;DHT22;226;48.606;9.096;2024-01-06T04:54:36;4.80;93.70
480;DHT22;226;48.606;9.096;2024-01-06T04:57:04;4.80;93.50
480;DHT22;226;48.606;9.096;2024-01-06T04:59:34;4.70;94.30
480;DHT22;226;48.606;9.096;2024-01-06T05:02:02;4.70;93.90
480;DHT22;226;48.606;9.096;2024-01-06T05:04:31;4.70;94.50
480;DHT22;226;48.606;9.096;2024-01-06T05:06:59;4.60;94.70
480;DHT22;226;48.606;9.096;2024-01-06T05:09:27;4.60;95.70
480;DHT22;226;48.606;9.096;2024-01-06T05:11:55;4.50;95.70
480;DHT22;226;48.606;9.096;2024-01-06T05:14:24;4.60;96.20
480;DHT22;226;48.606;9.096;2024-01-06T05:16:53;4.70;96.50
480;DHT22;226;48.606;9.096;2024-01-06T05:19:21;4.60;61.90
480;DHT22;226;48.606;9.096;2024-01-06T05:21:50;4.70;62.60
480;DHT22;226;48.606;9.096;2024-01-06T05:24:18;4.70;63.00
480;DHT22;226;48.606;9.096;2024-01-06T05:26:46;4.80;62.30
480;DHT22;226;48.606;9.096;2024-01-06T05:29:14;4.70;62.00
480;DHT22;226;48.606;9.096;2024-01-06T05:31:43;4.70;63.50
480;DHT22;226;48.606;9.096;2024-01-06T05:34:14;4.60;62.30
480;DHT22;226;48.606;9.096;2024-01-06T05:36:42;4.60;62.30
480;DHT22;226;48.606;9.096;2024-01-06T05:39:10;4.80;62.40
480;DHT22;226;48.606;9.096;2024-01-06T05:41:39;4.80;62.80
480;DHT22;226;48.606;9.096;2024-01-06T05:44:07;4.80;61.80
480;DHT22;226;48.606;9.096;2024-01-06T05:46:35;5.00;61.40
480;DHT22;226;48.606;9.096;2024-01-06T05:49:03;4.70;63.20
480;DHT22;226;48.606;9.096;2024-01-06T05:51:33;4.80;61.80
480;DHT22;226;48.606;9.096;2024-01-06T05:54:01;5.00;62.10
480;DHT22;226;48.606;9.096;2024-01-06T05:56:30;5.10;60.90
480;DHT22;226;48.606;9.096;2024-01-06T05:58:58;5.60;62.10
480;DHT22;226;48.606;9.096;2024-01-06T06:01:26;4.80;61.90
480;DHT22;226;48.606;9.096;2024-01-06T06:03:54;4.80;63.10
480;DHT22;226;48.606;9.096;2024-01-06T06:06:22;5.00;64.00
480;DHT22;226;48.606;9.096;2024-01-06T06:08:51;5.40;61.40
480;DHT22;226;48.606;9.096;2024-01-06T06:11:19;4.80;60.00
480;DHT22;226;48.606;9.096;2024-01-06T06:13:47;4.70;61.10
480;DHT22;226;48.606;9.096;2024-01-06T06:16:16;5.50;62.10
480;DHT22;226;48.606;9.096;2024-01-06T06:18:44;4.70;61.10
480;DHT22;226;48.606;9.096;2024-01-06T06:21:12;5.00;61.50
480;DHT22;226;48.606;9.096;2024-01-06T06:23:40;4.90;62.00
480;DHT22;226;48.606;9.096;2024-01-06T06:26:09;4.70;62.40
480;DHT22;226;48.606;9.096;2024-01-06T06:28:38;4.70;62.90
480;DHT22;226;48.606;9.096;2024-01-06T06:31:06;4.70;64.40
480;DHT22;226;48.606;9.096;2024-01-06T06:33:35;4.80;64.80
480;DHT22;226;48.606;9.096;2024-01-06T06:36:04;4.70;64.80
480;DHT22;226;48.606;9.096;2024-01-06T06:38:32;4.80;64.00
480;DHT22;226;48.606;9.096;2024-01-06T06:41:00;4.80;64.00
480;DHT22;226;48.606;9.096;2024-01-06T06:43:29;4.80;64.20
480;DHT22;226;48.606;9.096;2024-01-06T06:45:58;5.10;63.60
480;DHT22;226;48.606;9.096;2024-01-06T06:48:26;4.90;64.50
480;DHT22;226;48.606;9.096;2024-01-06T06:50:54;4.80;63.10
480;DHT22;226;48.606;9.096;2024-01-06T06:53:22;5.30;64.10
480;DHT22;226;48.606;9.096;2024-01-06T06:55:50;4.80;64.40
480;DHT22;226;48.606;9.096;2024-01-06T06:58:18;4.80;64.30
480;DHT22;226;48.606;9.096;2024-01-06T07:00:48;5.10;63.80
480;DHT22;226;48.606;9.096;2024-01-06T07:03:16;5.00;63.50
480;DHT22;226;48.606;9.096;2024-01-06T07:05:44;5.00;63.30
480;DHT22;226;48.606;9.096;2024-01-06T07:08:12;5.00;62.90
480;DHT22;226;48.606;9.096;2024-01-06T07:10:42;5.00;61.90
480;DHT22;226;48.606;9.096;2024-01-06T07:13:10;5.00;61.80
480;DHT22;226;48.606;9.096;2024-01-06T07:15:38;5.00;63.50
480;DHT22;226;48.606;9.096;2024-01-06T07:18:07;5.50;63.30
480;DHT22;226;48.606;9.096;2024-01-06T07:20:36;5.00;63.50
480;DHT22;226;48.606;9.096;2024-01-06T07:23:04;5.00;63.40
480;DHT22;226;48.606;9.096;2024-01-06T07:25:32;5.00;62.10
480;DHT22;226;48.606;9.096;2024-01-06T07:28:00;4.90;61.50
480;DHT22;226;48.606;9.096;2024-01-06T07:30:29;5.00;60.50
480;DHT22;226;48.606;9.096;2024-01-06T07:32:57;5.00;60.70
480;DHT22;226;48.606;9.096;2024-01-06T07:35:26;4.90;61.60
480;DHT22;226;48.606;9.096;2024-01-06T07:37:55;5.00;62.10
480;DHT22;226;48.606;9.096;2024-01-06T07:40:23;5.00;62.00
480;DHT22;226;48.606;9.096;2024-01-06T07:42:52;5.00;62.70
480;DHT22;226;48.606;9.096;2024-01-06T07:45:21;5.00;62.70
480;DHT22;226;48.606;9.096;2024-01-06T07:47:49;5.00;63.80
480;DHT22;226;48.606;9.096;2024-01-06T07:50:17;5.00;63.00
480;DHT22;226;48.606;9.096;2024-01-06T07:52:47;5.00;63.80
480;DHT22;226;48.606;9.096;2024-01-06T07:55:14;5.00;62.80
480;DHT22;226;48.606;9.096;2024-01-06T07:57:42;5.10;60.50
480;DHT22;226;48.606;9.096;2024-01-06T08:00:12;5.30;57.60
480;DHT22;226;48.606;9.096;2024-01-06T08:02:41;5.20;57.20
480;DHT22;226;48.606;9.096;2024-01-06T08:05:10;5.10;57.00
480;DHT22;226;48.606;9.096;2024-01-06T08:07:38;5.10;57.80
480;DHT22;226;48.606;9.096;2024-01-06T08:10:08;5.20;58.30
480;DHT22;226;48.606;9.096;2024-01-06T08:12:36;5.30;55.20
480;DHT22;226;48.606;9.096;2024-01-06T08:15:05;5.30;55.00
480;DHT22;226;48.606;9.096;2024-01-06T08:17:35;5.30;55.20
480;DHT22;226;48.606;9.096;2024-01-06T08:20:05;5.40;88.70
480;DHT22;226;48.606;9.096;2024-01-06T08:22:33;5.40;47.30
480;DHT22;226;48.606;9.096;2024-01-06T08:25:01;5.50;49.30
480;DHT22;226;48.606;9.096;2024-01-06T08:27:31;5.50;50.50
480;DHT22;226;48.606;9.096;2024-01-06T08:29:59;5.60;49.40
480;DHT22;226;48.606;9.096;2024-01-06T08:32:27;5.70;48.00
480;DHT22;226;48.606;9.096;2024-01-06T08:34:55;5.60;48.40
480;DHT22;226;48.606;9.096;2024-01-06T08:37:24;5.60;48.50
480;DHT22;226;48.606;9.096;2024-01-06T08:39:52;5.80;47.50
480;DHT22;226;48.606;9.096;2024-01-06T08:42:20;5.80;46.80
480;DHT22;226;48.606;9.096;2024-01-06T08:44:49;5.90;47.00
480;DHT22;226;48.606;9.096;2024-01-06T08:47:18;5.90;47.00
480;DHT22;226;48.606;9.096;2024-01-06T08:49:46;5.90;46.00
480;DHT22;226;48.606;9.096;2024-01-06T08:52:14;6.00;44.70
480;DHT22;226;48.606;9.096;2024-01-06T08:54:42;6.40;45.30
480;DHT22;226;48.606;9.096;2024-01-06T08:57:11;6.60;38.90
480;DHT22;226;48.606;9.096;2024-01-06T08:59:39;6.20;34.50
480;DHT22;226;48.606;9.096;2024-01-06T09:02:09;6.20;37.90
480;DHT22;226;48.606;9.096;2024-01-06T09:04:37;6.30;38.80
480;DHT22;226;48.606;9.096;2024-01-06T09:07:05;6.30;38.40
480;DHT22;226;48.606;9.096;2024-01-06T09:09:33;6.90;39.00
480;DHT22;226;48.606;9.096;2024-01-06T09:12:01;6.50;36.80
480;DHT22;226;48.606;9.096;2024-01-06T09:14:29;6.60;37.00
480;DHT22;226;48.606;9.096;2024-01-06T09:16:57;6.70;34.20
480;DHT22;226;48.606;9.096;2024-01-06T09:19:26;6.60;33.20
480;DHT22;226;48.606;9.096;2024-01-06T09:21:55;6.70;32.40
480;DHT22;226;48.606;9.096;2024-01-06T09:24:23;6.90;33.00
480;DHT22;226;48.606;9.096;2024-01-06T09:26:51;6.70;31.30
480;DHT22;226;48.606;9.096;2024-01-06T09:29:19;6.60;32.20
480;DHT22;226;48.606;9.096;2024-01-06T09:31:48;6.80;32.60
480;DHT22;226;48.606;9.096;2024-01-06T09:34:16;6.80;33.10
480;DHT22;226;48.606;9.096;2024-01-06T09:36:46;6.70;31.40
480;DHT22;226;48.606;9.096;2024-01-06T09:39:14;6.90;33.80
480;DHT22;226;48.606;9.096;2024-01-06T09:41:42;6.90;33.20
480;DHT22;226;48.606;9.096;2024-01-06T09:44:10;6.90;30.10
480;DHT22;226;48.606;9.096;2024-01-06T09:46:42;6.90;29.80
480;DHT22;226;48.606;9.096;2024-01-06T09:49:13;6.90;30.30
480;DHT22;226;48.606;9.096;2024-01-06T09:51:42;7.00;31.70
480;DHT22;226;48.606;9.096;2024-01-06T09:54:12;7.00;34.00
480;DHT22;226;48.606;9.096;2024-01-06T09:56:45;7.20;31.30
480;DHT22;226;48.606;9.096;2024-01-06T09:59:14;7.10;30.40
480;DHT22;226;48.606;9.096;2024-01-06T10:01:42;7.00;28.90
480;DHT22;226;48.606;9.096;2024-01-06T10:04:12;7.10;27.80
480;DHT22;226;48.606;9.096;2024-01-06T10:06:47;7.00;28.10
480;DHT22;226;48.606;9.096;2024-01-06T10:09:16;6.90;27.90
480;DHT22;226;48.606;9.096;2024-01-06T10:11:44;7.10;27.90
480;DHT22;226;48.606;9.096;2024-01-06T10:14:12;6.90;27.50
480;DHT22;226;48.606;9.096;2024-01-06T10:16:41;6.90;28.20
480;DHT22;226;48.606;9.096;2024-01-06T10:19:09;6.90;27.30
480;DHT22;226;48.606;9.096;2024-01-06T10:21:38;7.10;27.80
480;DHT22;226;48.606;9.096;2024-01-06T10:24:08;7.40;28.90
480;DHT22;226;48.606;9.096;2024-01-06T10:26:37;7.30;29.70
480;DHT22;226;48.606;9.096;2024-01-06T10:29:06;7.70;27.80
480;DHT22;226;48.606;9.096;2024-01-06T10:31:35;7.20;27.50
480;DHT22;226;48.606;9.096;2024-01-06T10:34:05;7.20;26.40
480;DHT22;226;48.606;9.096;2024-01-06T10:36:33;7.10;27.10
480;DHT22;226;48.606;9.096;2024-01-06T10:39:03;7.20;27.40
480;DHT22;226;48.606;9.096;2024-01-06T10:41:31;7.10;27.20
480;DHT22;226;48.606;9.096;2024-01-06T10:44:01;7.10;27.50
480;DHT22;226;48.606;9.096;2024-01-06T10:46:31;7.40;29.00
480;DHT22;226;48.606;9.096;2024-01-06T10:49:00;7.00;27.90
480;DHT22;226;48.606;9.096;2024-01-06T10:51:28;6.80;28.80
480;DHT22;226;48.606;9.096;2024-01-06T10:53:58;6.70;28.20
480;DHT22;226;48.606;9.096;2024-01-06T10:56:29;7.00;28.40
480;DHT22;226;48.606;9.096;2024-01-06T10:58:57;6.40;28.50
480;DHT22;226;48.606;9.096;2024-01-06T11:01:29;6.70;29.10
480;DHT22;226;48.606;9.096;2024-01-06T11:03:58;5.50;27.60
480;DHT22;226;48.606;9.096;2024-01-06T11:06:27;6.70;29.20
480;DHT22;226;48.606;9.096;2024-01-06T11:09:01;6.40;29.80
480;DHT22;226;48.606;9.096;2024-01-06T11:11:30;6.80;30.00
480;DHT22;226;48.606;9.096;2024-01-06T11:14:17;6.80;31.00
480;DHT22;226;48.606;9.096;2024-01-06T11:16:46;6.80;31.20
480;DHT22;226;48.606;9.096;2024-01-06T11:19:43;7.10;28.90
480;DHT22;226;48.606;9.096;2024-01-06T11:22:27;7.00;29.60
480;DHT22;226;48.606;9.096;2024-01-06T11:25:04;6.90;27.00
480;DHT22;226;48.606;9.096;2024-01-06T11:27:34;7.00;27.80
480;DHT22;226;48.606;9.096;2024-01-06T11:30:04;6.90;28.00
480;DHT22;226;48.606;9.096;2024-01-06T11:32:36;6.90;29.20
480;DHT22;226;48.606;9.096;2024-01-06T11:35:08;6.90;28.80
480;DHT22;226;48.606;9.096;2024-01-06T11:37:50;6.80;29.50
480;DHT22;226;48.606;9.096;2024-01-06T11:40:24;7.10;30.00
480;DHT22;226;48.606;9.096;2024-01-06T11:43:03;6.80;30.60
480;DHT22;226;48.606;9.096;2024-01-06T11:45:32;6.70;31.10
480;DHT22;226;48.606;9.096;2024-01-06T11:48:04;7.10;31.00
480;DHT22;226;48.606;9.096;2024-01-06T11:50:34;6.80;30.20
480;DHT22;226;48.606;9.096;2024-01-06T11:53:03;6.80;29.90
480;DHT22;226;48.606;9.096;2024-01-06T11:55:32;6.80;29.90
480;DHT22;226;48.606;9.096;2024-01-06T11:58:02;7.60;30.80
480;DHT22;226;48.606;9.096;2024-01-06T12:00:31;7.00;29.90
480;DHT22;226;48.606;9.096;2024-01-06T12:03:02;7.40;29.60
480;DHT22;226;48.606;9.096;2024-01-06T12:05:30;7.20;29.50
480;DHT22;226;48.606;9.096;2024-01-06T12:07:59;7.60;29.50
480;DHT22;226;48.606;9.096;2024-01-06T12:10:28;7.60;28.30
480;DHT22;226;48.606;9.096;2024-01-06T12:12:58;7.30;28.00
480;DHT22;226;48.606;9.096;2024-01-06T12:15:27;7.60;29.50
480;DHT22;226;48.606;9.096;2024-01-06T12:17:56;7.00;29.40
480;DHT22;226;48.606;9.096;2024-01-06T12:20:26;7.10;29.80
480;DHT22;226;48.606;9.096;2024-01-06T12:22:56;7.30;30.00
480;DHT22;226;48.606;9.096;2024-01-06T12:25:25;7.80;30.00
480;DHT22;226;48.606;9.096;2024-01-06T12:27:55;7.60;29.70
480;DHT22;226;48.606;9.096;2024-01-06T12:30:24;7.00;30.30
480;DHT22;226;48.606;9.096;2024-01-06T12:32:53;7.10;30.00
480;DHT22;226;48.606;9.096;2024-01-06T12:35:21;7.10;30.10
480;DHT22;226;48.606;9.096;2024-01-06T12:37:51;7.40;29.80
480;DHT22;226;48.606;9.096;2024-01-06T12:40:19;7.50;30.40
480;DHT22;226;48.606;9.096;2024-01-06T12:42:48;7.60;31.60
480;DHT22;226;48.606;9.096;2024-01-06T12:45:16;7.50;29.70
480;DHT22;226;48.606;9.096;2024-01-06T12:47:45;7.20;28.80
480;DHT22;226;48.606;9.096;2024-01-06T12:50:13;7.10;28.70
480;DHT22;226;48.606;9.096;2024-01-06T12:52:41;7.60;29.40
480;DHT22;226;48.606;9.096;2024-01-06T12:55:11;7.50;30.40
480;DHT22;226;48.606;9.096;2024-01-06T12:57:39;6.80;30.90
480;DHT22;226;48.606;9.096;2024-01-06T13:00:09;6.90;29.90
480;DHT22;226;48.606;9.096;2024-01-06T13:02:39;7.30;30.00
480;DHT22;226;48.606;9.096;2024-01-06T13:05:07;7.30;31.20
480;DHT22;226;48.606;9.096;2024-01-06T13:07:36;7.00;30.60
480;DHT22;226;48.606;9.096;2024-01-06T13:10:05;7.20;30.80
480;DHT22;226;48.606;9.096;2024-01-06T13:12:35;7.00;30.30
480;DHT22;226;48.606;9.096;2024-01-06T13:15:04;7.20;31.50
480;DHT22;226;48.606;9.096;2024-01-06T13:17:33;7.00;30.40
480;DHT22;226;48.606;9.096;2024-01-06T13:20:01;6.90;30.60
480;DHT22;226;48.606;9.096;2024-01-06T13:22:29;7.20;31.00
480;DHT22;226;48.606;9.096;2024-01-06T13:24:58;6.80;31.50
480;DHT22;226;48.606;9.096;2024-01-06T13:27:26;7.00;32.80
480;DHT22;226;48.606;9.096;2024-01-06T13:29:56;7.00;30.70
480;DHT22;226;48.606;9.096;2024-01-06T13:32:25;6.40;31.40
480;DHT22;226;48.606;9.096;2024-01-06T13:34:54;7.30;32.60
480;DHT22;226;48.606;9.096;2024-01-06T13:37:28;7.60;32.70
480;DHT22;226;48.606;9.096;2024-01-06T13:39:57;6.80;33.00
480;DHT22;226;48.606;9.096;2024-01-06T13:42:25;7.30;33.60
480;DHT22;226;48.606;9.096;2024-01-06T13:44:53;6.90;34.20
480;DHT22;226;48.606;9.096;2024-01-06T13:47:23;6.90;33.70
480;DHT22;226;48.606;9.096;2024-01-06T13:49:51;6.90;33.40
480;DHT22;226;48.606;9.096;2024-01-06T13:52:22;6.70;32.90
480;DHT22;226;48.606;9.096;2024-01-06T13:54:50;7.20;33.10
480;DHT22;226;48.606;9.096;2024-01-06T13:57:19;6.80;33.80
480;DHT22;226;48.606;9.096;2024-01-06T13:59:47;7.30;35.50
480;DHT22;226;48.606;9.096;2024-01-06T14:02:15;6.70;34.80
480;DHT22;226;48.606;9.096;2024-01-06T14:04:45;6.80;34.70
480;DHT22;226;48.606;9.096;2024-01-06T14:07:15;6.70;35.10
480;DHT22;226;48.606;9.096;2024-01-06T14:09:46;7.70;36.70
480;DHT22;226;48.606;9.096;2024-01-06T14:12:14;6.70;36.20
480;DHT22;226;48.606;9.096;2024-01-06T14:14:42;7.90;38.70
480;DHT22;226;48.606;9.096;2024-01-06T14:17:10;6.70;36.30
480;DHT22;226;48.606;9.096;2024-01-06T14:19:38;7.10;36.30
480;DHT22;226;48.606;9.096;2024-01-06T14:22:11;6.60;36.40
480;DHT22;226;48.606;9.096;2024-01-06T14:24:41;6.90;37.90
480;DHT22;226;48.606;9.096;2024-01-06T14:27:09;6.50;37.80
480;DHT22;226;48.606;9.096;2024-01-06T14:29:37;6.60;55.00
480;DHT22;226;48.606;9.096;2024-01-06T14:32:06;7.00;43.50
480;DHT22;226;48.606;9.096;2024-01-06T14:34:35;6.50;42.10
480;DHT22;226;48.606;9.096;2024-01-06T14:37:03;6.40;41.70
480;DHT22;226;48.606;9.096;2024-01-06T14:39:32;6.40;43.30
480;DHT22;226;48.606;9.096;2024-01-06T14:42:03;6.80;43.60
480;DHT22;226;48.606;9.096;2024-01-06T14:44:32;6.40;44.40
480;DHT22;226;48.606;9.096;2024-01-06T14:47:00;6.30;44.40
480;DHT22;226;48.606;9.096;2024-01-06T14:49:28;7.40;44.30
480;DHT22;226;48.606;9.096;2024-01-06T14:52:00;6.20;42.60
480;DHT22;226;48.606;9.096;2024-01-06T14:54:34;6.30;41.20
480;DHT22;226;48.606;9.096;2024-01-06T14:57:02;6.30;42.30
480;DHT22;226;48.606;9.096;2024-01-06T14:59:31;6.30;45.00
480;DHT22;226;48.606;9.096;2024-01-06T15:01:59;6.30;45.10
480;DHT22;226;48.606;9.096;2024-01-06T15:04:27;6.30;43.00
480;DHT22;226;48.606;9.096;2024-01-06T15:06:56;6.20;44.20
480;DHT22;226;48.606;9.096;2024-01-06T15:09:25;6.10;44.50
480;DHT22;226;48.606;9.096;2024-01-06T15:11:56;6.10;46.10
480;DHT22;226;48.606;9.096;2024-01-06T15:14:24;6.10;44.70
480;DHT22;226;48.606;9.096;2024-01-06T15:16:52;6.40;46.00
480;DHT22;226;48.606;9.096;2024-01-06T15:19:20;6.20;46.10
480;DHT22;226;48.606;9.096;2024-01-06T15:21:50;6.30;45.90
480;DHT22;226;48.606;9.096;2024-01-06T15:24:18;6.20;45.50
480;DHT22;226;48.606;9.096;2024-01-06T15:26:47;6.30;44.50
480;DHT22;226;48.606;9.096;2024-01-06T15:29:16;6.10;45.20
480;DHT22;226;48.606;9.096;2024-01-06T15:31:43;7.40;45.70
480;DHT22;226;48.606;9.096;2024-01-06T15:34:12;6.10;45.20
480;DHT22;226;48.606;9.096;2024-01-06T15:36:40;6.00;45.30
480;DHT22;226;48.606;9.096;2024-01-06T15:39:08;6.00;46.80
480;DHT22;226;48.606;9.096;2024-01-06T15:41:37;6.10;46.80
480;DHT22;226;48.606;9.096;2024-01-06T15:44:05;5.90;46.30
480;DHT22;226;48.606;9.096;2024-01-06T15:46:34;6.10;47.70
480;DHT22;226;48.606;9.096;2024-01-06T15:49:02;5.90;47.30
480;DHT22;226;48.606;9.096;2024-01-06T15:51:31;6.00;47.10
480;DHT22;226;48.606;9.096;2024-01-06T15:53:59;5.90;47.60
480;DHT22;226;48.606;9.096;2024-01-06T15:56:27;6.00;47.30
480;DHT22;226;48.606;9.096;2024-01-06T15:58:55;6.00;48.60
480;DHT22;226;48.606;9.096;2024-01-06T16:01:24;5.90;49.50
480;DHT22;226;48.606;9.096;2024-01-06T16:03:54;5.80;50.00
480;DHT22;226;48.606;9.096;2024-01-06T16:06:22;5.70;51.30
480;DHT22;226;48.606;9.096;2024-01-06T16:08:50;5.60;53.10
480;DHT22;226;48.606;9.096;2024-01-06T16:11:18;5.50;51.00
480;DHT22;226;48.606;9.096;2024-01-06T16:13:46;5.50;54.40
480;DHT22;226;48.606;9.096;2024-01-06T16:18:43;5.60;91.70
480;DHT22;226;48.606;9.096;2024-01-06T16:21:21;5.50;90.70
480;DHT22;226;48.606;9.096;2024-01-06T16:23:50;5.60;89.90
480;DHT22;226;48.606;9.096;2024-01-06T16:26:18;5.60;89.60
480;DHT22;226;48.606;9.096;2024-01-06T16:28:46;5.60;87.60
480;DHT22;226;48.606;9.096;2024-01-06T16:31:15;5.60;88.20
480;DHT22;226;48.606;9.096;2024-01-06T16:33:45;5.60;88.50
480;DHT22;226;48.606;9.096;2024-01-06T16:36:15;5.60;87.90
480;DHT22;226;48.606;9.096;2024-01-06T16:38:43;5.60;86.80
480;DHT22;226;48.606;9.096;2024-01-06T16:41:11;4.70;86.30
480;DHT22;226;48.606;9.096;2024-01-06T16:43:40;5.60;87.40
480;DHT22;226;48.606;9.096;2024-01-06T16:46:08;5.60;86.80
480;DHT22;226;48.606;9.096;2024-01-06T16:48:36;5.70;87.70
480;DHT22;226;48.606;9.096;2024-01-06T16:51:05;6.10;87.50
480;DHT22;226;48.606;9.096;2024-01-06T16:53:34;5.60;87.10
480;DHT22;226;48.606;9.096;2024-01-06T16:56:03;5.70;87.40
480;DHT22;226;48.606;9.096;2024-01-06T16:58:31;5.60;85.90
480;DHT22;226;48.606;9.096;2024-01-06T17:00:59;5.70;85.70
480;DHT22;226;48.606;9.096;2024-01-06T17:03:29;5.70;85.00
480;DHT22;226;48.606;9.096;2024-01-06T17:05:57;5.70;83.50
480;DHT22;226;48.606;9.096;2024-01-06T17:08:26;5.80;83.80
480;DHT22;226;48.606;9.096;2024-01-06T17:10:56;5.80;81.60
480;DHT22;226;48.606;9.096;2024-01-06T17:13:24;5.90;67.40
480;DHT22;226;48.606;9.096;2024-01-06T17:15:52;5.70;65.80
480;DHT22;226;48.606;9.096;2024-01-06T17:18:21;5.70;79.80
480;DHT22;226;48.606;9.096;2024-01-06T17:20:49;5.70;80.80
480;DHT22;226;48.606;9.096;2024-01-06T17:23:17;5.70;88.70
480;DHT22;226;48.606;9.096;2024-01-06T17:25:45;5.80;77.50
480;DHT22;226;48.606;9.096;2024-01-06T17:28:15;6.00;70.70